sensor_id;sensor_type;location;lat;lon;timestamp;pressure;altitude;pressure_sealevel;temperature;humidity
47330;BME280;33060;50.178;7.570;2022-12-18T00:00:59;98081.28;;;-5.23;81.62
47330;BME280;33060;50.178;7.570;2022-12-18T00:03:28;98082.97;;;-5.27;81.87
47330;BME280;33060;50.178;7.570;2022-12-18T00:05:55;98084.69;;;-5.26;81.82
47330;BME280;33060;50.178;7.570;2022-12-18T00:08:23;98079.56;;;-5.24;81.87
47330;BME280;33060;50.178;7.570;2022-12-18T00:10:49;98095.88;;;-5.21;81.84
47330;BME280;33060;50.178;7.570;2022-12-18T00:13:18;98094.13;;;-5.22;81.80
47330;BME280;33060;50.178;7.570;2022-12-18T00:15:46;98095.91;;;-5.19;81.66
47330;BME280;33060;50.178;7.570;2022-12-18T00:18:13;98098.41;;;-5.25;81.57
47330;BME280;33060;50.178;7.570;2022-12-18T00:20:45;98099.25;;;-5.26;81.66
47330;BME280;33060;50.178;7.570;2022-12-18T00:23:12;98093.25;;;-5.27;81.78
47330;BME280;33060;50.178;7.570;2022-12-18T00:25:39;98102.59;;;-5.36;81.48
47330;BME280;33060;50.178;7.570;2022-12-18T00:28:06;98094.84;;;-5.40;81.16
47330;BME280;33060;50.178;7.570;2022-12-18T00:30:32;98097.38;;;-5.44;81.59
47330;BME280;33060;50.178;7.570;2022-12-18T00:32:59;98088.81;;;-5.45;81.53
47330;BME280;33060;50.178;7.570;2022-12-18T00:35:26;98082.72;;;-5.54;81.57
47330;BME280;33060;50.178;7.570;2022-12-18T00:37:52;98082.72;;;-5.56;81.54
47330;BME280;33060;50.178;7.570;2022-12-18T00:40:19;98085.28;;;-5.56;81.81
47330;BME280;33060;50.178;7.570;2022-12-18T00:42:46;98085.22;;;-5.60;81.86
47330;BME280;33060;50.178;7.570;2022-12-18T00:45:23;98089.50;;;-5.61;81.49
47330;BME280;33060;50.178;7.570;2022-12-18T00:47:50;98086.00;;;-5.66;81.83
47330;BME280;33060;50.178;7.570;2022-12-18T00:50:19;98088.56;;;-5.68;81.85
47330;BME280;33060;50.178;7.570;2022-12-18T00:52:45;98089.47;;;-5.64;81.43
47330;BME280;33060;50.178;7.570;2022-12-18T00:55:12;98080.91;;;-5.64;81.48
47330;BME280;33060;50.178;7.570;2022-12-18T00:57:40;98073.13;;;-5.69;81.34
47330;BME280;33060;50.178;7.570;2022-12-18T01:00:10;98086.84;;;-5.69;81.45
47330;BME280;33060;50.178;7.570;2022-12-18T01:02:36;98085.13;;;-5.71;81.55
47330;BME280;33060;50.178;7.570;2022-12-18T01:05:05;98085.13;;;-5.70;81.32
47330;BME280;33060;50.178;7.570;2022-12-18T01:07:32;98096.25;;;-5.71;81.16
47330;BME280;33060;50.178;7.570;2022-12-18T01:09:59;98086.84;;;-5.69;80.93
47330;BME280;33060;50.178;7.570;2022-12-18T01:12:25;98090.25;;;-5.71;81.13
47330;BME280;33060;50.178;7.570;2022-12-18T01:14:52;98101.41;;;-5.71;80.84
47330;BME280;33060;50.178;7.570;2022-12-18T01:17:20;98102.34;;;-5.59;80.98
47330;BME280;33060;50.178;7.570;2022-12-18T01:19:46;98101.47;;;-5.63;80.34
47330;BME280;33060;50.178;7.570;2022-12-18T01:22:13;98108.31;;;-5.63;80.32
47330;BME280;33060;50.178;7.570;2022-12-18T01:24:39;98115.97;;;-5.68;80.67
47330;BME280;33060;50.178;7.570;2022-12-18T01:27:06;98108.19;;;-5.74;80.74
47330;BME280;33060;50.178;7.570;2022-12-18T01:29:33;98110.72;;;-5.80;81.02
47330;BME280;33060;50.178;7.570;2022-12-18T01:32:00;98101.22;;;-5.86;81.33
47330;BME280;33060;50.178;7.570;2022-12-18T01:34:28;98105.44;;;-5.94;81.83
47330;BME280;33060;50.178;7.570;2022-12-18T01:36:55;98108.78;;;-6.00;82.15
47330;BME280;33060;50.178;7.570;2022-12-18T01:39:22;98115.50;;;-6.09;82.23
47330;BME280;33060;50.178;7.570;2022-12-18T01:41:49;98107.81;;;-6.09;82.41
47330;BME280;33060;50.178;7.570;2022-12-18T01:44:57;98108.72;;;-6.06;82.38
47330;BME280;33060;50.178;7.570;2022-12-18T01:47:32;98112.94;;;-6.11;82.62
47330;BME280;33060;50.178;7.570;2022-12-18T01:50:03;98103.63;;;-6.03;82.76
47330;BME280;33060;50.178;7.570;2022-12-18T01:52:31;98105.34;;;-6.02;82.80
47330;BME280;33060;50.178;7.570;2022-12-18T01:55:00;98100.19;;;-6.05;82.65
47330;BME280;33060;50.178;7.570;2022-12-18T01:57:28;98097.50;;;-6.12;83.55
47330;BME280;33060;50.178;7.570;2022-12-18T01:59:59;98099.16;;;-6.17;83.94
47330;BME280;33060;50.178;7.570;2022-12-18T02:02:40;98094.22;;;-6.01;84.11
47330;BME280;33060;50.178;7.570;2022-12-18T02:05:07;98088.22;;;-6.00;83.75
47330;BME280;33060;50.178;7.570;2022-12-18T02:08:03;98087.44;;;-5.97;83.68
47330;BME280;33060;50.178;7.570;2022-12-18T02:13:20;98084.91;;;-5.92;83.58
47330;BME280;33060;50.178;7.570;2022-12-18T02:16:06;98089.19;;;-5.90;83.59
47330;BME280;33060;50.178;7.570;2022-12-18T02:18:45;98081.50;;;-5.90;83.20
47330;BME280;33060;50.178;7.570;2022-12-18T02:21:28;98067.75;;;-5.96;83.26
47330;BME280;33060;50.178;7.570;2022-12-18T02:26:34;98070.13;;;-6.12;83.91
47330;BME280;33060;50.178;7.570;2022-12-18T02:29:15;98078.66;;;-6.14;83.98
47330;BME280;33060;50.178;7.570;2022-12-18T02:31:46;98071.88;;;-6.09;84.50
47330;BME280;33060;50.178;7.570;2022-12-18T02:34:16;98076.22;;;-6.04;84.47
47330;BME280;33060;50.178;7.570;2022-12-18T02:36:46;98076.28;;;-5.99;83.79
47330;BME280;33060;50.178;7.570;2022-12-18T02:39:15;98077.97;;;-6.00;84.14
47330;BME280;33060;50.178;7.570;2022-12-18T02:41:54;98065.09;;;-6.01;84.50
47330;BME280;33060;50.178;7.570;2022-12-18T02:44:22;98068.41;;;-6.11;84.39
47330;BME280;33060;50.178;7.570;2022-12-18T02:46:52;98059.00;;;-6.11;84.42
47330;BME280;33060;50.178;7.570;2022-12-18T02:49:40;98065.97;;;-6.02;84.79
47330;BME280;33060;50.178;7.570;2022-12-18T02:52:55;98068.63;;;-5.93;84.27
47330;BME280;33060;50.178;7.570;2022-12-18T02:55:35;98065.91;;;-6.07;84.41
47330;BME280;33060;50.178;7.570;2022-12-18T02:58:16;98067.59;;;-6.09;84.90
47330;BME280;33060;50.178;7.570;2022-12-18T03:00:50;98072.63;;;-6.18;85.26
47330;BME280;33060;50.178;7.570;2022-12-18T03:03:30;98062.38;;;-6.16;85.03
47330;BME280;33060;50.178;7.570;2022-12-18T03:06:05;98069.94;;;-6.26;84.86
47330;BME280;33060;50.178;7.570;2022-12-18T03:08:37;98064.84;;;-6.24;85.62
47330;BME280;33060;50.178;7.570;2022-12-18T03:11:11;98061.34;;;-6.29;85.58
47330;BME280;33060;50.178;7.570;2022-12-18T03:13:43;98057.09;;;-6.27;86.40
47330;BME280;33060;50.178;7.570;2022-12-18T03:16:18;98057.97;;;-6.27;86.27
47330;BME280;33060;50.178;7.570;2022-12-18T03:18:49;98062.22;;;-6.29;86.76
47330;BME280;33060;50.178;7.570;2022-12-18T03:21:20;98059.63;;;-6.32;86.44
47330;BME280;33060;50.178;7.570;2022-12-18T03:23:49;98050.22;;;-6.30;86.13
47330;BME280;33060;50.178;7.570;2022-12-18T03:26:24;98057.84;;;-6.37;86.56
47330;BME280;33060;50.178;7.570;2022-12-18T03:29:03;98039.94;;;-6.33;86.61
47330;BME280;33060;50.178;7.570;2022-12-18T03:31:32;98041.66;;;-6.32;86.75
47330;BME280;33060;50.178;7.570;2022-12-18T03:34:01;98059.66;;;-6.27;87.06
47330;BME280;33060;50.178;7.570;2022-12-18T03:36:38;98054.53;;;-6.29;87.20
47330;BME280;33060;50.178;7.570;2022-12-18T03:39:06;98054.59;;;-6.24;86.80
47330;BME280;33060;50.178;7.570;2022-12-18T03:44:50;98052.03;;;-6.24;87.43
47330;BME280;33060;50.178;7.570;2022-12-18T03:47:33;98046.88;;;-6.24;87.13
47330;BME280;33060;50.178;7.570;2022-12-18T03:50:21;98040.09;;;-6.19;87.09
47330;BME280;33060;50.178;7.570;2022-12-18T03:52:51;98035.81;;;-6.18;87.21
47330;BME280;33060;50.178;7.570;2022-12-18T03:55:22;98029.81;;;-6.19;86.85
47330;BME280;33060;50.178;7.570;2022-12-18T03:57:58;98034.16;;;-6.13;87.49
47330;BME280;33060;50.178;7.570;2022-12-18T04:00:34;98042.66;;;-6.17;87.71
47330;BME280;33060;50.178;7.570;2022-12-18T04:03:08;98030.75;;;-6.12;87.73
47330;BME280;33060;50.178;7.570;2022-12-18T04:05:43;98034.19;;;-6.09;87.50
47330;BME280;33060;50.178;7.570;2022-12-18T04:08:13;98032.56;;;-6.05;87.28
47330;BME280;33060;50.178;7.570;2022-12-18T04:10:47;98031.69;;;-6.07;87.32
47330;BME280;33060;50.178;7.570;2022-12-18T04:13:22;98031.63;;;-6.09;87.61
47330;BME280;33060;50.178;7.570;2022-12-18T04:15:50;98041.03;;;-6.09;87.38
47330;BME280;33060;50.178;7.570;2022-12-18T04:18:21;98039.41;;;-6.03;86.99
47330;BME280;33060;50.178;7.570;2022-12-18T04:20:48;98031.72;;;-6.03;86.72
47330;BME280;33060;50.178;7.570;2022-12-18T04:23:16;98033.41;;;-6.05;86.71
47330;BME280;33060;50.178;7.570;2022-12-18T04:25:42;98030.00;;;-6.02;87.11
47330;BME280;33060;50.178;7.570;2022-12-18T04:28:15;98023.13;;;-6.08;87.04
47330;BME280;33060;50.178;7.570;2022-12-18T04:30:41;98027.34;;;-6.08;87.33
47330;BME280;33060;50.178;7.570;2022-12-18T04:33:11;98032.56;;;-6.05;87.51
47330;BME280;33060;50.178;7.570;2022-12-18T04:35:39;98031.69;;;-6.07;87.82
47330;BME280;33060;50.178;7.570;2022-12-18T04:38:07;98032.50;;;-6.08;87.18
47330;BME280;33060;50.178;7.570;2022-12-18T04:40:35;98029.03;;;-6.15;87.51
47330;BME280;33060;50.178;7.570;2022-12-18T04:43:05;98032.38;;;-6.19;87.85
47330;BME280;33060;50.178;7.570;2022-12-18T04:45:32;98033.13;;;-6.29;87.63
47330;BME280;33060;50.178;7.570;2022-12-18T04:47:59;98035.72;;;-6.26;88.09
47330;BME280;33060;50.178;7.570;2022-12-18T04:50:26;98028.84;;;-6.30;87.99
47330;BME280;33060;50.178;7.570;2022-12-18T04:52:53;98037.47;;;-6.23;88.05
47330;BME280;33060;50.178;7.570;2022-12-18T04:55:20;98031.47;;;-6.24;88.26
47330;BME280;33060;50.178;7.570;2022-12-18T04:57:47;98026.38;;;-6.22;87.94
47330;BME280;33060;50.178;7.570;2022-12-18T05:00:14;98028.97;;;-6.18;88.40
47330;BME280;33060;50.178;7.570;2022-12-18T05:02:40;98027.22;;;-6.23;88.29
47330;BME280;33060;50.178;7.570;2022-12-18T05:05:07;98019.53;;;-6.20;88.75
47330;BME280;33060;50.178;7.570;2022-12-18T05:07:34;98017.84;;;-6.17;88.29
47330;BME280;33060;50.178;7.570;2022-12-18T05:10:01;98013.59;;;-6.16;88.37
47330;BME280;33060;50.178;7.570;2022-12-18T05:12:27;98016.13;;;-6.19;88.67
47330;BME280;33060;50.178;7.570;2022-12-18T05:14:54;98021.25;;;-6.18;88.68
47330;BME280;33060;50.178;7.570;2022-12-18T05:17:20;98014.47;;;-6.13;88.08
47330;BME280;33060;50.178;7.570;2022-12-18T05:19:47;98010.94;;;-6.24;88.51
47330;BME280;33060;50.178;7.570;2022-12-18T05:22:14;98007.53;;;-6.23;88.55
47330;BME280;33060;50.178;7.570;2022-12-18T05:24:40;98018.59;;;-6.27;88.35
47330;BME280;33060;50.178;7.570;2022-12-18T05:27:07;98004.91;;;-6.28;88.56
47330;BME280;33060;50.178;7.570;2022-12-18T05:29:33;98004.13;;;-6.19;87.89
47330;BME280;33060;50.178;7.570;2022-12-18T05:32:00;98006.66;;;-6.25;87.75
47330;BME280;33060;50.178;7.570;2022-12-18T05:34:27;98009.28;;;-6.19;88.03
47330;BME280;33060;50.178;7.570;2022-12-18T05:36:53;98004.91;;;-6.26;88.03
47330;BME280;33060;50.178;7.570;2022-12-18T05:39:20;98001.44;;;-6.31;88.05
47330;BME280;33060;50.178;7.570;2022-12-18T05:41:46;98004.91;;;-6.26;88.89
47330;BME280;33060;50.178;7.570;2022-12-18T05:44:13;98007.53;;;-6.23;88.63
47330;BME280;33060;50.178;7.570;2022-12-18T05:46:41;98016.94;;;-6.23;88.71
47330;BME280;33060;50.178;7.570;2022-12-18T05:49:08;98009.22;;;-6.25;88.55
47330;BME280;33060;50.178;7.570;2022-12-18T05:51:35;98008.41;;;-6.22;88.49
47330;BME280;33060;50.178;7.570;2022-12-18T05:54:02;98012.66;;;-6.23;88.72
47330;BME280;33060;50.178;7.570;2022-12-18T05:56:29;98015.25;;;-6.18;88.85
47330;BME280;33060;50.178;7.570;2022-12-18T05:58:56;98016.97;;;-6.20;88.94
47330;BME280;33060;50.178;7.570;2022-12-18T06:01:25;98026.44;;;-6.15;89.04
47330;BME280;33060;50.178;7.570;2022-12-18T06:03:53;98025.69;;;-6.08;88.54
47330;BME280;33060;50.178;7.570;2022-12-18T06:06:22;98022.22;;;-6.10;88.09
47330;BME280;33060;50.178;7.570;2022-12-18T06:08:50;98032.47;;;-6.10;88.32
47330;BME280;33060;50.178;7.570;2022-12-18T06:11:19;98038.53;;;-6.06;88.39
47330;BME280;33060;50.178;7.570;2022-12-18T06:13:46;98036.78;;;-6.09;88.24
47330;BME280;33060;50.178;7.570;2022-12-18T06:16:23;98046.22;;;-6.08;88.57
47330;BME280;33060;50.178;7.570;2022-12-18T06:18:49;98047.97;;;-6.05;88.27
47330;BME280;33060;50.178;7.570;2022-12-18T06:21:16;98058.22;;;-6.05;88.09
47330;BME280;33060;50.178;7.570;2022-12-18T06:23:43;98054.81;;;-6.04;88.06
47330;BME280;33060;50.178;7.570;2022-12-18T06:26:11;98055.69;;;-6.01;88.25
47330;BME280;33060;50.178;7.570;2022-12-18T06:28:39;98045.47;;;-5.99;87.70
47330;BME280;33060;50.178;7.570;2022-12-18T06:31:06;98052.34;;;-5.96;87.09
47330;BME280;33060;50.178;7.570;2022-12-18T06:33:34;98047.22;;;-5.95;86.95
47330;BME280;33060;50.178;7.570;2022-12-18T06:38:29;98059.97;;;-6.01;86.98
47330;BME280;33060;50.178;7.570;2022-12-18T06:40:56;98054.75;;;-6.09;86.91
47330;BME280;33060;50.178;7.570;2022-12-18T06:43:22;98062.41;;;-6.13;86.61
47330;BME280;33060;50.178;7.570;2022-12-18T06:45:49;98069.16;;;-6.20;86.96
47330;BME280;33060;50.178;7.570;2022-12-18T06:48:19;98071.75;;;-6.18;86.93
47330;BME280;33060;50.178;7.570;2022-12-18T06:50:46;98068.28;;;-6.23;87.08
47330;BME280;33060;50.178;7.570;2022-12-18T06:53:13;98071.69;;;-6.24;87.40
47330;BME280;33060;50.178;7.570;2022-12-18T06:55:40;98066.53;;;-6.26;87.48
47330;BME280;33060;50.178;7.570;2022-12-18T06:58:07;98069.91;;;-6.30;87.81
47330;BME280;33060;50.178;7.570;2022-12-18T07:00:36;98054.50;;;-6.32;87.25
47330;BME280;33060;50.178;7.570;2022-12-18T07:03:02;98058.75;;;-6.32;87.67
47330;BME280;33060;50.178;7.570;2022-12-18T07:05:29;98049.38;;;-6.32;87.29
47330;BME280;33060;50.178;7.570;2022-12-18T07:07:56;98040.91;;;-6.21;87.28
47330;BME280;33060;50.178;7.570;2022-12-18T07:10:22;98039.22;;;-6.18;87.29
47330;BME280;33060;50.178;7.570;2022-12-18T07:12:49;98032.41;;;-6.17;86.78
47330;BME280;33060;50.178;7.570;2022-12-18T07:15:16;98027.31;;;-6.14;86.65
47330;BME280;33060;50.178;7.570;2022-12-18T07:17:42;98031.59;;;-6.15;86.87
47330;BME280;33060;50.178;7.570;2022-12-18T07:20:09;98029.88;;;-6.14;86.88
47330;BME280;33060;50.178;7.570;2022-12-18T07:22:36;98028.97;;;-6.18;87.46
47330;BME280;33060;50.178;7.570;2022-12-18T07:25:03;98041.00;;;-6.14;87.23
47330;BME280;33060;50.178;7.570;2022-12-18T07:27:30;98053.00;;;-6.11;87.25
47330;BME280;33060;50.178;7.570;2022-12-18T07:29:56;98057.28;;;-6.13;87.04
47330;BME280;33060;50.178;7.570;2022-12-18T07:32:23;98064.97;;;-6.16;87.16
47330;BME280;33060;50.178;7.570;2022-12-18T07:34:50;98078.56;;;-6.23;87.36
47330;BME280;33060;50.178;7.570;2022-12-18T07:37:16;98073.41;;;-6.23;87.47
47330;BME280;33060;50.178;7.570;2022-12-18T07:39:43;98088.75;;;-6.30;87.37
47330;BME280;33060;50.178;7.570;2022-12-18T07:42:10;98082.78;;;-6.27;87.52
47330;BME280;33060;50.178;7.570;2022-12-18T07:44:55;98079.34;;;-6.29;87.54
47330;BME280;33060;50.178;7.570;2022-12-18T07:47:22;98086.19;;;-6.27;86.66
47330;BME280;33060;50.178;7.570;2022-12-18T07:49:48;98080.25;;;-6.24;86.95
47330;BME280;33060;50.178;7.570;2022-12-18T07:52:15;98081.09;;;-6.25;86.28
47330;BME280;33060;50.178;7.570;2022-12-18T07:54:48;98078.59;;;-6.20;86.26
47330;BME280;33060;50.178;7.570;2022-12-18T07:57:16;98082.00;;;-6.20;86.27
47330;BME280;33060;50.178;7.570;2022-12-18T08:00:04;98086.25;;;-6.25;86.29
47330;BME280;33060;50.178;7.570;2022-12-18T08:02:37;98093.16;;;-6.18;85.51
47330;BME280;33060;50.178;7.570;2022-12-18T08:05:04;98096.56;;;-6.19;85.63
47330;BME280;33060;50.178;7.570;2022-12-18T08:07:32;98096.56;;;-6.20;85.55
47330;BME280;33060;50.178;7.570;2022-12-18T08:09:59;98104.22;;;-6.23;86.04
47330;BME280;33060;50.178;7.570;2022-12-18T08:12:25;98084.56;;;-6.20;86.12
47330;BME280;33060;50.178;7.570;2022-12-18T08:14:52;98091.53;;;-6.11;86.14
47330;BME280;33060;50.178;7.570;2022-12-18T08:17:19;98072.75;;;-6.07;85.18
47330;BME280;33060;50.178;7.570;2022-12-18T08:19:47;98067.69;;;-6.01;85.01
47330;BME280;33060;50.178;7.570;2022-12-18T08:22:13;98069.44;;;-5.99;85.16
47330;BME280;33060;50.178;7.570;2022-12-18T08:24:40;98071.19;;;-5.94;84.99
47330;BME280;33060;50.178;7.570;2022-12-18T08:27:06;98062.69;;;-5.86;84.48
47330;BME280;33060;50.178;7.570;2022-12-18T08:29:53;98052.47;;;-5.80;84.35
47330;BME280;33060;50.178;7.570;2022-12-18T08:32:20;98049.91;;;-5.80;83.95
47330;BME280;33060;50.178;7.570;2022-12-18T08:34:46;98041.34;;;-5.80;83.85
47330;BME280;33060;50.178;7.570;2022-12-18T08:37:13;98033.75;;;-5.68;83.73
47330;BME280;33060;50.178;7.570;2022-12-18T08:39:39;98032.19;;;-5.54;82.59
47330;BME280;33060;50.178;7.570;2022-12-18T08:42:06;98031.41;;;-5.44;81.89
47330;BME280;33060;50.178;7.570;2022-12-18T08:44:51;98025.41;;;-5.40;82.02
47330;BME280;33060;50.178;7.570;2022-12-18T08:47:18;98034.13;;;-5.25;81.47
47330;BME280;33060;50.178;7.570;2022-12-18T08:49:44;98040.19;;;-5.16;80.84
47330;BME280;33060;50.178;7.570;2022-12-18T08:52:14;98037.63;;;-5.17;80.43
47330;BME280;33060;50.178;7.570;2022-12-18T08:54:41;98032.53;;;-5.08;80.35
47330;BME280;33060;50.178;7.570;2022-12-18T08:57:07;98031.56;;;-5.22;80.63
47330;BME280;33060;50.178;7.570;2022-12-18T08:59:34;98035.78;;;-5.30;80.94
47330;BME280;33060;50.178;7.570;2022-12-18T09:02:00;98039.13;;;-5.39;81.76
47330;BME280;33060;50.178;7.570;2022-12-18T09:04:27;98044.31;;;-5.37;81.68
47330;BME280;33060;50.178;7.570;2022-12-18T09:06:54;98046.97;;;-5.28;81.23
47330;BME280;33060;50.178;7.570;2022-12-18T09:09:20;98028.25;;;-5.07;80.46
47330;BME280;33060;50.178;7.570;2022-12-18T09:11:47;98041.97;;;-5.07;79.68
47330;BME280;33060;50.178;7.570;2022-12-18T09:14:14;98063.41;;;-5.05;79.79
47330;BME280;33060;50.178;7.570;2022-12-18T09:16:40;98062.59;;;-5.01;79.85
47330;BME280;33060;50.178;7.570;2022-12-18T09:19:08;98067.94;;;-4.73;78.28
47330;BME280;33060;50.178;7.570;2022-12-18T09:21:36;98060.38;;;-4.49;77.13
47330;BME280;33060;50.178;7.570;2022-12-18T09:24:11;98054.47;;;-4.25;76.25
47330;BME280;33060;50.178;7.570;2022-12-18T09:26:38;98065.56;;;-4.40;76.65
47330;BME280;33060;50.178;7.570;2022-12-18T09:29:06;98068.09;;;-4.44;76.73
47330;BME280;33060;50.178;7.570;2022-12-18T09:31:34;98075.09;;;-4.20;76.25
47330;BME280;33060;50.178;7.570;2022-12-18T09:34:01;98076.81;;;-4.19;75.77
47330;BME280;33060;50.178;7.570;2022-12-18T09:36:28;98075.81;;;-4.44;76.61
47330;BME280;33060;50.178;7.570;2022-12-18T09:38:54;98074.91;;;-4.56;76.86
47330;BME280;33060;50.178;7.570;2022-12-18T09:44:23;98056.97;;;-4.40;76.63
47330;BME280;33060;50.178;7.570;2022-12-18T09:46:54;98065.53;;;-4.44;76.99
47330;BME280;33060;50.178;7.570;2022-12-18T09:49:28;98054.53;;;-4.16;76.07
47330;BME280;33060;50.178;7.570;2022-12-18T09:52:09;98057.97;;;-4.12;75.88
47330;BME280;33060;50.178;7.570;2022-12-18T09:54:48;98054.63;;;-3.79;75.13
47330;BME280;33060;50.178;7.570;2022-12-18T09:57:20;98054.59;;;-3.94;74.74
47330;BME280;33060;50.178;7.570;2022-12-18T09:59:54;98040.00;;;-3.88;75.29
47330;BME280;33060;50.178;7.570;2022-12-18T10:02:26;98054.63;;;-3.90;75.09
47330;BME280;33060;50.178;7.570;2022-12-18T10:05:07;98039.22;;;-3.62;74.47
47330;BME280;33060;50.178;7.570;2022-12-18T10:07:59;98040.94;;;-3.52;73.97
47330;BME280;33060;50.178;7.570;2022-12-18T10:10:52;98024.63;;;-3.56;73.98
47330;BME280;33060;50.178;7.570;2022-12-18T10:19:01;98011.69;;;-3.59;74.77
47330;BME280;33060;50.178;7.570;2022-12-18T10:24:39;98022.03;;;-3.18;73.33
47330;BME280;33060;50.178;7.570;2022-12-18T10:27:22;98005.66;;;-3.04;72.59
47330;BME280;33060;50.178;7.570;2022-12-18T10:29:50;98005.69;;;-3.03;72.65
47330;BME280;33060;50.178;7.570;2022-12-18T10:32:20;98009.09;;;-2.89;72.35
47330;BME280;33060;50.178;7.570;2022-12-18T10:34:49;98012.53;;;-2.88;72.06
47330;BME280;33060;50.178;7.570;2022-12-18T10:37:29;98008.19;;;-2.65;71.11
47330;BME280;33060;50.178;7.570;2022-12-18T10:40:13;98004.78;;;-2.80;71.10
47330;BME280;33060;50.178;7.570;2022-12-18T10:43:12;97999.59;;;-2.67;70.48
47330;BME280;33060;50.178;7.570;2022-12-18T10:45:39;98005.69;;;-3.10;72.34
47330;BME280;33060;50.178;7.570;2022-12-18T10:48:19;97998.78;;;-2.84;72.54
47330;BME280;33060;50.178;7.570;2022-12-18T10:50:49;98003.06;;;-2.83;71.69
47330;BME280;33060;50.178;7.570;2022-12-18T10:53:40;97995.34;;;-2.85;71.76
47330;BME280;33060;50.178;7.570;2022-12-18T10:56:08;97997.09;;;-3.02;72.36
47330;BME280;33060;50.178;7.570;2022-12-18T10:58:37;97997.06;;;-2.97;73.43
47330;BME280;33060;50.178;7.570;2022-12-18T11:01:14;97980.69;;;-2.76;71.83
47330;BME280;33060;50.178;7.570;2022-12-18T11:06:18;97983.31;;;-2.93;72.02
47330;BME280;33060;50.178;7.570;2022-12-18T11:11:37;98001.31;;;-2.70;72.06
47330;BME280;33060;50.178;7.570;2022-12-18T11:14:19;98009.00;;;-2.47;71.26
47330;BME280;33060;50.178;7.570;2022-12-18T11:16:49;98010.72;;;-2.40;71.13
47330;BME280;33060;50.178;7.570;2022-12-18T11:19:41;98013.31;;;-2.54;70.91
47330;BME280;33060;50.178;7.570;2022-12-18T11:24:54;98025.19;;;-2.04;69.85
47330;BME280;33060;50.178;7.570;2022-12-18T11:27:47;98028.75;;;-2.28;70.27
47330;BME280;33060;50.178;7.570;2022-12-18T11:30:28;98029.69;;;-2.55;71.10
47330;BME280;33060;50.178;7.570;2022-12-18T11:38:39;98005.66;;;-2.92;72.34
47330;BME280;33060;50.178;7.570;2022-12-18T11:41:27;98014.25;;;-2.84;72.07
47330;BME280;33060;50.178;7.570;2022-12-18T11:44:26;98019.34;;;-2.49;71.12
47330;BME280;33060;50.178;7.570;2022-12-18T11:49:55;98025.41;;;-2.73;71.70
47330;BME280;33060;50.178;7.570;2022-12-18T11:52:26;98013.41;;;-2.92;72.11
47330;BME280;33060;50.178;7.570;2022-12-18T11:55:04;98006.56;;;-3.08;72.31
47330;BME280;33060;50.178;7.570;2022-12-18T11:57:42;98015.16;;;-3.17;72.19
47330;BME280;33060;50.178;7.570;2022-12-18T12:05:31;98007.41;;;-2.87;71.06
47330;BME280;33060;50.178;7.570;2022-12-18T12:13:51;98001.34;;;-2.87;70.73
47330;BME280;33060;50.178;7.570;2022-12-18T12:16:32;97997.97;;;-3.21;72.18
47330;BME280;33060;50.178;7.570;2022-12-18T12:22:34;97991.06;;;-3.10;70.88
47330;BME280;33060;50.178;7.570;2022-12-18T12:27:46;97978.16;;;-3.01;70.49
47330;BME280;33060;50.178;7.570;2022-12-18T12:33:43;97965.28;;;-3.44;71.86
47330;BME280;33060;50.178;7.570;2022-12-18T12:39:07;97944.66;;;-3.33;71.70
47330;BME280;33060;50.178;7.570;2022-12-18T12:41:36;97947.25;;;-3.36;72.25
47330;BME280;33060;50.178;7.570;2022-12-18T12:44:28;97948.09;;;-3.69;73.16
47330;BME280;33060;50.178;7.570;2022-12-18T12:46:59;97953.25;;;-3.51;73.60
47330;BME280;33060;50.178;7.570;2022-12-18T12:49:29;97962.69;;;-3.41;72.44
47330;BME280;33060;50.178;7.570;2022-12-18T12:52:12;97954.97;;;-3.37;72.80
47330;BME280;33060;50.178;7.570;2022-12-18T12:54:41;97953.25;;;-3.63;73.22
47330;BME280;33060;50.178;7.570;2022-12-18T12:57:13;97946.38;;;-3.67;73.26
47330;BME280;33060;50.178;7.570;2022-12-18T13:07:36;97931.75;;;-3.57;73.08
47330;BME280;33060;50.178;7.570;2022-12-18T13:12:56;97928.31;;;-3.91;74.08
47330;BME280;33060;50.178;7.570;2022-12-18T13:15:25;97928.31;;;-3.84;74.65
47330;BME280;33060;50.178;7.570;2022-12-18T13:18:04;97930.91;;;-3.90;74.30
47330;BME280;33060;50.178;7.570;2022-12-18T13:20:36;97921.44;;;-4.00;75.36
47330;BME280;33060;50.178;7.570;2022-12-18T13:25:58;97919.72;;;-3.92;75.42
47330;BME280;33060;50.178;7.570;2022-12-18T13:31:14;97908.50;;;-4.34;76.11
47330;BME280;33060;50.178;7.570;2022-12-18T13:33:45;97908.53;;;-4.21;76.40
47330;BME280;33060;50.178;7.570;2022-12-18T13:36:33;97905.94;;;-4.34;77.06
47330;BME280;33060;50.178;7.570;2022-12-18T13:41:52;97905.88;;;-4.46;76.94
47330;BME280;33060;50.178;7.570;2022-12-18T13:44:38;97900.72;;;-4.52;77.50
47330;BME280;33060;50.178;7.570;2022-12-18T13:47:30;97905.06;;;-4.40;77.24
47330;BME280;33060;50.178;7.570;2022-12-18T13:49:58;97911.91;;;-4.38;76.62
47330;BME280;33060;50.178;7.570;2022-12-18T13:52:33;97917.97;;;-4.19;76.23
47330;BME280;33060;50.178;7.570;2022-12-18T13:55:05;97927.41;;;-4.21;76.46
47330;BME280;33060;50.178;7.570;2022-12-18T13:57:35;97936.88;;;-4.12;76.30
47330;BME280;33060;50.178;7.570;2022-12-18T14:00:27;97931.69;;;-4.31;76.46
47330;BME280;33060;50.178;7.570;2022-12-18T14:02:56;97941.97;;;-4.43;77.12
47330;BME280;33060;50.178;7.570;2022-12-18T14:05:26;97934.19;;;-4.53;77.88
47330;BME280;33060;50.178;7.570;2022-12-18T14:07:54;97933.38;;;-4.42;78.43
47330;BME280;33060;50.178;7.570;2022-12-18T14:10:22;97939.31;;;-4.60;78.60
47330;BME280;33060;50.178;7.570;2022-12-18T14:13:10;97936.69;;;-4.73;79.21
47330;BME280;33060;50.178;7.570;2022-12-18T14:15:41;97928.03;;;-4.92;80.07
47330;BME280;33060;50.178;7.570;2022-12-18T14:18:44;97921.25;;;-4.70;79.50
47330;BME280;33060;50.178;7.570;2022-12-18T14:21:28;97922.06;;;-4.79;79.78
47330;BME280;33060;50.178;7.570;2022-12-18T14:26:32;97912.59;;;-4.88;79.79
47330;BME280;33060;50.178;7.570;2022-12-18T14:29:17;97916.03;;;-4.93;80.42
47330;BME280;33060;50.178;7.570;2022-12-18T14:31:46;97906.56;;;-5.00;80.23
47330;BME280;33060;50.178;7.570;2022-12-18T14:34:35;97907.31;;;-5.18;81.42
47330;BME280;33060;50.178;7.570;2022-12-18T14:37:01;97909.06;;;-5.11;81.45
47330;BME280;33060;50.178;7.570;2022-12-18T14:39:28;97900.50;;;-5.08;81.28
47330;BME280;33060;50.178;7.570;2022-12-18T14:41:55;97900.44;;;-5.19;81.53
47330;BME280;33060;50.178;7.570;2022-12-18T14:44:21;97902.97;;;-5.30;82.96
47330;BME280;33060;50.178;7.570;2022-12-18T14:46:50;97906.34;;;-5.34;83.29